sensor_id;sensor_type;location;lat;lon;timestamp;P1;durP1;ratioP1;P2;durP2;ratioP2
9960;SDS011;5021;51.506;11.320;2023-06-24T00:01:43;7.43;;;5.93;;
9960;SDS011;5021;51.506;11.320;2023-06-24T00:04:09;6.77;;;6.17;;
9960;SDS011;5021;51.506;11.320;2023-06-24T00:06:35;6.67;;;6.07;;
9960;SDS011;5021;51.506;11.320;2023-06-24T00:09:02;7.47;;;6.40;;
9960;SDS011;5021;51.506;11.320;2023-06-24T00:11:29;8.60;;;6.93;;
9960;SDS011;5021;51.506;11.320;2023-06-24T00:13:55;9.73;;;6.80;;
9960;SDS011;5021;51.506;11.320;2023-06-24T00:16:21;7.10;;;6.40;;
9960;SDS011;5021;51.506;11.320;2023-06-24T00:18:52;7.23;;;6.53;;
9960;SDS011;5021;51.506;11.320;2023-06-24T00:21:18;7.33;;;6.60;;
9960;SDS011;5021;51.506;11.320;2023-06-24T00:23:45;6.87;;;6.37;;
9960;SDS011;5021;51.506;11.320;2023-06-24T00:26:14;10.97;;;6.73;;
9960;SDS011;5021;51.506;11.320;2023-06-24T00:28:41;7.60;;;6.20;;
9960;SDS011;5021;51.506;11.320;2023-06-24T00:31:07;8.10;;;6.37;;
9960;SDS011;5021;51.506;11.320;2023-06-24T00:33:33;7.73;;;7.00;;
9960;SDS011;5021;51.506;11.320;2023-06-24T00:36:01;7.87;;;7.13;;
9960;SDS011;5021;51.506;11.320;2023-06-24T00:38:26;7.70;;;7.10;;
9960;SDS011;5021;51.506;11.320;2023-06-24T00:40:57;8.07;;;6.83;;
9960;SDS011;5021;51.506;11.320;2023-06-24T00:43:23;7.00;;;6.40;;
9960;SDS011;5021;51.506;11.320;2023-06-24T00:45:49;14.23;;;8.20;;
9960;SDS011;5021;51.506;11.320;2023-06-24T00:48:15;7.33;;;6.70;;
9960;SDS011;5021;51.506;11.320;2023-06-24T00:50:41;8.27;;;6.40;;
9960;SDS011;5021;51.506;11.320;2023-06-24T00:53:10;6.30;;;5.70;;
9960;SDS011;5021;51.506;11.320;2023-06-24T00:55:36;7.37;;;6.50;;
9960;SDS011;5021;51.506;11.320;2023-06-24T00:58:03;6.87;;;6.27;;
9960;SDS011;5021;51.506;11.320;2023-06-24T01:00:29;8.17;;;6.07;;
9960;SDS011;5021;51.506;11.320;2023-06-24T01:02:57;6.53;;;6.03;;
9960;SDS011;5021;51.506;11.320;2023-06-24T01:05:24;6.17;;;5.67;;
9960;SDS011;5021;51.506;11.320;2023-06-24T01:07:51;5.27;;;4.87;;
9960;SDS011;5021;51.506;11.320;2023-06-24T01:10:20;5.43;;;4.47;;
9960;SDS011;5021;51.506;11.320;2023-06-24T01:12:47;6.80;;;4.63;;
9960;SDS011;5021;51.506;11.320;2023-06-24T01:15:13;7.07;;;5.10;;
9960;SDS011;5021;51.506;11.320;2023-06-24T01:20:11;6.83;;;5.97;;
9960;SDS011;5021;51.506;11.320;2023-06-24T01:22:52;5.53;;;5.13;;
9960;SDS011;5021;51.506;11.320;2023-06-24T01:28:12;6.03;;;4.57;;
9960;SDS011;5021;51.506;11.320;2023-06-24T01:31:01;5.43;;;4.80;;
9960;SDS011;5021;51.506;11.320;2023-06-24T01:33:36;5.27;;;4.63;;
9960;SDS011;5021;51.506;11.320;2023-06-24T01:36:05;4.80;;;4.40;;
9960;SDS011;5021;51.506;11.320;2023-06-24T01:38:38;5.63;;;4.97;;
9960;SDS011;5021;51.506;11.320;2023-06-24T01:41:06;5.27;;;4.50;;
9960;SDS011;5021;51.506;11.320;2023-06-24T01:43:33;6.53;;;4.60;;
9960;SDS011;5021;51.506;11.320;2023-06-24T01:45:59;5.30;;;4.80;;
9960;SDS011;5021;51.506;11.320;2023-06-24T01:48:27;7.63;;;5.20;;
9960;SDS011;5021;51.506;11.320;2023-06-24T01:53:19;5.17;;;4.67;;
9960;SDS011;5021;51.506;11.320;2023-06-24T01:55:46;5.40;;;4.83;;
9960;SDS011;5021;51.506;11.320;2023-06-24T01:58:12;5.87;;;5.37;;
9960;SDS011;5021;51.506;11.320;2023-06-24T02:00:39;7.07;;;5.20;;
9960;SDS011;5021;51.506;11.320;2023-06-24T02:03:05;10.90;;;5.00;;
9960;SDS011;5021;51.506;11.320;2023-06-24T02:05:32;7.17;;;5.70;;
9960;SDS011;5021;51.506;11.320;2023-06-24T02:07:59;6.00;;;5.40;;
9960;SDS011;5021;51.506;11.320;2023-06-24T02:10:26;5.30;;;4.90;;
9960;SDS011;5021;51.506;11.320;2023-06-24T02:12:52;6.30;;;5.80;;
9960;SDS011;5021;51.506;11.320;2023-06-24T02:15:19;6.10;;;5.60;;
9960;SDS011;5021;51.506;11.320;2023-06-24T02:17:46;5.40;;;4.90;;
9960;SDS011;5021;51.506;11.320;2023-06-24T02:20:12;6.00;;;5.33;;
9960;SDS011;5021;51.506;11.320;2023-06-24T02:22:41;5.87;;;5.27;;
9960;SDS011;5021;51.506;11.320;2023-06-24T02:25:07;8.07;;;5.27;;
9960;SDS011;5021;51.506;11.320;2023-06-24T02:27:33;6.83;;;5.23;;
9960;SDS011;5021;51.506;11.320;2023-06-24T02:30:00;7.10;;;6.40;;
9960;SDS011;5021;51.506;11.320;2023-06-24T02:32:26;5.97;;;5.47;;
9960;SDS011;5021;51.506;11.320;2023-06-24T02:34:52;7.43;;;5.83;;
9960;SDS011;5021;51.506;11.320;2023-06-24T02:37:18;7.50;;;6.17;;
9960;SDS011;5021;51.506;11.320;2023-06-24T02:39:44;6.57;;;5.87;;
9960;SDS011;5021;51.506;11.320;2023-06-24T02:42:10;6.90;;;6.30;;
9960;SDS011;5021;51.506;11.320;2023-06-24T02:44:38;7.07;;;5.90;;
9960;SDS011;5021;51.506;11.320;2023-06-24T02:47:04;9.37;;;6.33;;
9960;SDS011;5021;51.506;11.320;2023-06-24T02:49:31;7.70;;;6.67;;
9960;SDS011;5021;51.506;11.320;2023-06-24T02:51:57;6.93;;;6.20;;
9960;SDS011;5021;51.506;11.320;2023-06-24T02:54:23;7.67;;;6.87;;
9960;SDS011;5021;51.506;11.320;2023-06-24T02:56:49;7.87;;;6.10;;
9960;SDS011;5021;51.506;11.320;2023-06-24T02:59:15;6.83;;;6.00;;
9960;SDS011;5021;51.506;11.320;2023-06-24T03:01:41;7.57;;;6.87;;
9960;SDS011;5021;51.506;11.320;2023-06-24T03:04:10;10.30;;;9.13;;
9960;SDS011;5021;51.506;11.320;2023-06-24T03:06:37;9.73;;;8.73;;
9960;SDS011;5021;51.506;11.320;2023-06-24T03:09:04;12.53;;;9.57;;
9960;SDS011;5021;51.506;11.320;2023-06-24T03:11:30;10.13;;;9.07;;
9960;SDS011;5021;51.506;11.320;2023-06-24T03:13:56;9.73;;;8.70;;
9960;SDS011;5021;51.506;11.320;2023-06-24T03:16:22;9.90;;;8.90;;
9960;SDS011;5021;51.506;11.320;2023-06-24T03:18:48;11.30;;;9.10;;
9960;SDS011;5021;51.506;11.320;2023-06-24T03:21:14;10.83;;;9.00;;
9960;SDS011;5021;51.506;11.320;2023-06-24T03:23:40;10.97;;;9.13;;
9960;SDS011;5021;51.506;11.320;2023-06-24T03:26:06;11.03;;;9.83;;
9960;SDS011;5021;51.506;11.320;2023-06-24T03:28:35;9.33;;;8.33;;
9960;SDS011;5021;51.506;11.320;2023-06-24T03:31:01;9.60;;;8.60;;
9960;SDS011;5021;51.506;11.320;2023-06-24T03:33:27;10.27;;;8.63;;
9960;SDS011;5021;51.506;11.320;2023-06-24T03:35:53;9.70;;;8.70;;
9960;SDS011;5021;51.506;11.320;2023-06-24T03:38:21;9.53;;;8.63;;
9960;SDS011;5021;51.506;11.320;2023-06-24T03:40:47;10.70;;;8.83;;
9960;SDS011;5021;51.506;11.320;2023-06-24T03:43:13;11.33;;;9.47;;
9960;SDS011;5021;51.506;11.320;2023-06-24T03:45:39;10.87;;;9.50;;
9960;SDS011;5021;51.506;11.320;2023-06-24T03:48:05;12.40;;;9.40;;
9960;SDS011;5021;51.506;11.320;2023-06-24T03:50:31;12.10;;;10.23;;
9960;SDS011;5021;51.506;11.320;2023-06-24T03:52:57;13.23;;;10.30;;
9960;SDS011;5021;51.506;11.320;2023-06-24T03:55:23;14.13;;;10.80;;
9960;SDS011;5021;51.506;11.320;2023-06-24T03:57:49;12.50;;;11.13;;
9960;SDS011;5021;51.506;11.320;2023-06-24T04:00:15;12.03;;;10.67;;
9960;SDS011;5021;51.506;11.320;2023-06-24T04:02:43;11.90;;;10.07;;
9960;SDS011;5021;51.506;11.320;2023-06-24T04:05:10;11.83;;;10.60;;
9960;SDS011;5021;51.506;11.320;2023-06-24T04:07:36;12.53;;;11.23;;
9960;SDS011;5021;51.506;11.320;2023-06-24T04:10:02;13.20;;;10.80;;
9960;SDS011;5021;51.506;11.320;2023-06-24T04:12:29;12.13;;;10.57;;
9960;SDS011;5021;51.506;11.320;2023-06-24T04:14:55;11.17;;;10.07;;
9960;SDS011;5021;51.506;11.320;2023-06-24T04:17:21;12.63;;;11.30;;
9960;SDS011;5021;51.506;11.320;2023-06-24T04:19:47;12.23;;;10.60;;
9960;SDS011;5021;51.506;11.320;2023-06-24T04:22:13;14.37;;;11.53;;
9960;SDS011;5021;51.506;11.320;2023-06-24T04:24:39;12.57;;;10.70;;
9960;SDS011;5021;51.506;11.320;2023-06-24T04:27:07;12.03;;;10.83;;
9960;SDS011;5021;51.506;11.320;2023-06-24T04:29:33;11.53;;;10.30;;
9960;SDS011;5021;51.506;11.320;2023-06-24T04:31:59;13.90;;;10.87;;
9960;SDS011;5021;51.506;11.320;2023-06-24T04:34:25;12.77;;;11.03;;
9960;SDS011;5021;51.506;11.320;2023-06-24T04:36:51;11.83;;;10.23;;
9960;SDS011;5021;51.506;11.320;2023-06-24T04:39:17;11.23;;;10.23;;
9960;SDS011;5021;51.506;11.320;2023-06-24T04:41:43;10.23;;;9.23;;
9960;SDS011;5021;51.506;11.320;2023-06-24T04:44:09;11.47;;;9.73;;
9960;SDS011;5021;51.506;11.320;2023-06-24T04:46:35;11.50;;;10.30;;
9960;SDS011;5021;51.506;11.320;2023-06-24T04:49:02;10.30;;;9.30;;
9960;SDS011;5021;51.506;11.320;2023-06-24T04:51:28;10.03;;;9.17;;
9960;SDS011;5021;51.506;11.320;2023-06-24T04:53:54;9.80;;;8.80;;
9960;SDS011;5021;51.506;11.320;2023-06-24T04:56:20;9.37;;;8.47;;
9960;SDS011;5021;51.506;11.320;2023-06-24T04:58:46;9.53;;;8.63;;
9960;SDS011;5021;51.506;11.320;2023-06-24T05:01:12;8.60;;;7.70;;
9960;SDS011;5021;51.506;11.320;2023-06-24T05:03:37;8.87;;;8.00;;
9960;SDS011;5021;51.506;11.320;2023-06-24T05:06:03;8.77;;;7.97;;
9960;SDS011;5021;51.506;11.320;2023-06-24T05:08:29;8.57;;;7.70;;
9960;SDS011;5021;51.506;11.320;2023-06-24T05:10:55;7.70;;;7.07;;
9960;SDS011;5021;51.506;11.320;2023-06-24T05:13:21;7.30;;;6.70;;
9960;SDS011;5021;51.506;11.320;2023-06-24T05:15:47;7.70;;;7.00;;
9960;SDS011;5021;51.506;11.320;2023-06-24T05:18:13;7.30;;;6.60;;
9960;SDS011;5021;51.506;11.320;2023-06-24T05:20:39;7.87;;;7.13;;
9960;SDS011;5021;51.506;11.320;2023-06-24T05:23:05;8.57;;;7.77;;
9960;SDS011;5021;51.506;11.320;2023-06-24T05:25:31;7.57;;;6.87;;
9960;SDS011;5021;51.506;11.320;2023-06-24T05:27:57;8.13;;;7.43;;
9960;SDS011;5021;51.506;11.320;2023-06-24T05:30:23;8.40;;;7.50;;
9960;SDS011;5021;51.506;11.320;2023-06-24T05:32:49;8.03;;;7.23;;
9960;SDS011;5021;51.506;11.320;2023-06-24T05:35:15;7.93;;;7.23;;
9960;SDS011;5021;51.506;11.320;2023-06-24T05:37:41;8.50;;;7.73;;
9960;SDS011;5021;51.506;11.320;2023-06-24T05:40:07;7.50;;;6.80;;
9960;SDS011;5021;51.506;11.320;2023-06-24T05:42:34;8.07;;;7.37;;
9960;SDS011;5021;51.506;11.320;2023-06-24T05:45:00;9.87;;;7.97;;
9960;SDS011;5021;51.506;11.320;2023-06-24T05:47:26;8.90;;;8.10;;
9960;SDS011;5021;51.506;11.320;2023-06-24T05:49:52;10.13;;;9.17;;
9960;SDS011;5021;51.506;11.320;2023-06-24T05:52:18;9.40;;;8.53;;
9960;SDS011;5021;51.506;11.320;2023-06-24T05:54:43;8.90;;;8.10;;
9960;SDS011;5021;51.506;11.320;2023-06-24T05:57:09;8.93;;;8.10;;
9960;SDS011;5021;51.506;11.320;2023-06-24T05:59:35;9.83;;;8.77;;
9960;SDS011;5021;51.506;11.320;2023-06-24T06:02:01;9.43;;;8.53;;
9960;SDS011;5021;51.506;11.320;2023-06-24T06:04:28;9.93;;;9.00;;
9960;SDS011;5021;51.506;11.320;2023-06-24T06:06:54;13.90;;;8.97;;
9960;SDS011;5021;51.506;11.320;2023-06-24T06:09:20;10.03;;;9.13;;
9960;SDS011;5021;51.506;11.320;2023-06-24T06:11:46;10.10;;;9.20;;
9960;SDS011;5021;51.506;11.320;2023-06-24T06:14:12;11.07;;;9.97;;
9960;SDS011;5021;51.506;11.320;2023-06-24T06:16:38;9.83;;;8.83;;
9960;SDS011;5021;51.506;11.320;2023-06-24T06:19:04;11.60;;;10.50;;
9960;SDS011;5021;51.506;11.320;2023-06-24T06:21:31;10.73;;;9.70;;
9960;SDS011;5021;51.506;11.320;2023-06-24T06:23:57;11.80;;;10.70;;
9960;SDS011;5021;51.506;11.320;2023-06-24T06:26:23;13.03;;;11.73;;
9960;SDS011;5021;51.506;11.320;2023-06-24T06:28:49;13.07;;;11.87;;
9960;SDS011;5021;51.506;11.320;2023-06-24T06:31:15;11.77;;;10.77;;
9960;SDS011;5021;51.506;11.320;2023-06-24T06:33:41;12.10;;;11.07;;
9960;SDS011;5021;51.506;11.320;2023-06-24T06:36:07;13.27;;;12.03;;
9960;SDS011;5021;51.506;11.320;2023-06-24T06:38:33;12.43;;;11.33;;
9960;SDS011;5021;51.506;11.320;2023-06-24T06:40:59;11.40;;;10.30;;
9960;SDS011;5021;51.506;11.320;2023-06-24T06:43:25;12.70;;;11.43;;
9960;SDS011;5021;51.506;11.320;2023-06-24T06:45:51;10.73;;;9.73;;
9960;SDS011;5021;51.506;11.320;2023-06-24T06:48:17;11.10;;;10.03;;
9960;SDS011;5021;51.506;11.320;2023-06-24T06:50:44;11.50;;;10.30;;
9960;SDS011;5021;51.506;11.320;2023-06-24T06:53:10;10.73;;;9.60;;
9960;SDS011;5021;51.506;11.320;2023-06-24T06:55:36;11.83;;;10.67;;
9960;SDS011;5021;51.506;11.320;2023-06-24T06:58:04;10.70;;;9.70;;
9960;SDS011;5021;51.506;11.320;2023-06-24T07:00:30;12.13;;;10.20;;
9960;SDS011;5021;51.506;11.320;2023-06-24T07:02:56;12.10;;;10.90;;
9960;SDS011;5021;51.506;11.320;2023-06-24T07:05:22;11.68;;;10.48;;
9960;SDS011;5021;51.506;11.320;2023-06-24T07:07:47;11.35;;;10.20;;
9960;SDS011;5021;51.506;11.320;2023-06-24T07:10:15;11.07;;;10.00;;
9960;SDS011;5021;51.506;11.320;2023-06-24T07:12:42;11.30;;;10.10;;
9960;SDS011;5021;51.506;11.320;2023-06-24T07:15:08;11.70;;;9.98;;
9960;SDS011;5021;51.506;11.320;2023-06-24T07:17:34;10.75;;;9.65;;
9960;SDS011;5021;51.506;11.320;2023-06-24T07:20:00;10.13;;;9.20;;
9960;SDS011;5021;51.506;11.320;2023-06-24T07:22:26;10.82;;;9.18;;
9960;SDS011;5021;51.506;11.320;2023-06-24T07:24:52;9.75;;;8.85;;
9960;SDS011;5021;51.506;11.320;2023-06-24T07:27:17;8.40;;;7.70;;
9960;SDS011;5021;51.506;11.320;2023-06-24T07:29:43;8.55;;;7.70;;
9960;SDS011;5021;51.506;11.320;2023-06-24T07:32:09;8.70;;;7.70;;
9960;SDS011;5021;51.506;11.320;2023-06-24T07:34:35;8.00;;;7.30;;
9960;SDS011;5021;51.506;11.320;2023-06-24T07:37:01;9.18;;;7.80;;
9960;SDS011;5021;51.506;11.320;2023-06-24T07:39:27;8.48;;;7.53;;
9960;SDS011;5021;51.506;11.320;2023-06-24T07:41:53;9.07;;;7.28;;
9960;SDS011;5021;51.506;11.320;2023-06-24T07:44:19;7.53;;;6.85;;
9960;SDS011;5021;51.506;11.320;2023-06-24T07:46:45;7.38;;;6.68;;
9960;SDS011;5021;51.506;11.320;2023-06-24T07:49:11;8.60;;;6.72;;
9960;SDS011;5021;51.506;11.320;2023-06-24T07:51:37;7.30;;;6.68;;
9960;SDS011;5021;51.506;11.320;2023-06-24T07:54:02;7.72;;;6.97;;
9960;SDS011;5021;51.506;11.320;2023-06-24T07:56:28;7.38;;;6.78;;
9960;SDS011;5021;51.506;11.320;2023-06-24T07:58:54;7.15;;;6.45;;
9960;SDS011;5021;51.506;11.320;2023-06-24T08:01:20;6.93;;;6.22;;
9960;SDS011;5021;51.506;11.320;2023-06-24T08:03:46;8.57;;;6.57;;
9960;SDS011;5021;51.506;11.320;2023-06-24T08:06:12;6.80;;;6.10;;
9960;SDS011;5021;51.506;11.320;2023-06-24T08:08:38;6.88;;;6.28;;
9960;SDS011;5021;51.506;11.320;2023-06-24T08:11:04;7.15;;;6.15;;
9960;SDS011;5021;51.506;11.320;2023-06-24T08:13:30;7.43;;;6.20;;
9960;SDS011;5021;51.506;11.320;2023-06-24T08:15:56;8.52;;;6.40;;
9960;SDS011;5021;51.506;11.320;2023-06-24T08:18:22;9.90;;;6.20;;
9960;SDS011;5021;51.506;11.320;2023-06-24T08:20:48;6.63;;;5.97;;
9960;SDS011;5021;51.506;11.320;2023-06-24T08:23:14;6.18;;;5.57;;
9960;SDS011;5021;51.506;11.320;2023-06-24T08:25:40;6.97;;;6.38;;
9960;SDS011;5021;51.506;11.320;2023-06-24T08:28:06;6.68;;;6.00;;
9960;SDS011;5021;51.506;11.320;2023-06-24T08:30:32;6.82;;;6.10;;
9960;SDS011;5021;51.506;11.320;2023-06-24T08:32:58;6.97;;;6.28;;
9960;SDS011;5021;51.506;11.320;2023-06-24T08:35:23;6.20;;;5.68;;
9960;SDS011;5021;51.506;11.320;2023-06-24T08:37:49;7.13;;;6.07;;
9960;SDS011;5021;51.506;11.320;2023-06-24T08:40:15;6.63;;;6.03;;
9960;SDS011;5021;51.506;11.320;2023-06-24T08:42:43;7.63;;;6.70;;
9960;SDS011;5021;51.506;11.320;2023-06-24T08:45:09;8.03;;;6.57;;
9960;SDS011;5021;51.506;11.320;2023-06-24T08:47:35;8.10;;;6.70;;
9960;SDS011;5021;51.506;11.320;2023-06-24T08:50:03;7.57;;;6.53;;
9960;SDS011;5021;51.506;11.320;2023-06-24T08:52:30;7.40;;;6.60;;
9960;SDS011;5021;51.506;11.320;2023-06-24T08:54:57;7.27;;;6.60;;
9960;SDS011;5021;51.506;11.320;2023-06-24T08:57:24;7.20;;;6.50;;
9960;SDS011;5021;51.506;11.320;2023-06-24T08:59:50;6.73;;;5.77;;
9960;SDS011;5021;51.506;11.320;2023-06-24T09:02:16;6.77;;;6.17;;
9960;SDS011;5021;51.506;11.320;2023-06-24T09:04:42;7.13;;;6.10;;
9960;SDS011;5021;51.506;11.320;2023-06-24T09:07:08;6.60;;;6.00;;
9960;SDS011;5021;51.506;11.320;2023-06-24T09:09:41;6.97;;;5.93;;
9960;SDS011;5021;51.506;11.320;2023-06-24T09:12:10;8.07;;;5.97;;
9960;SDS011;5021;51.506;11.320;2023-06-24T09:14:36;6.67;;;6.03;;
9960;SDS011;5021;51.506;11.320;2023-06-24T09:17:02;6.40;;;5.80;;
9960;SDS011;5021;51.506;11.320;2023-06-24T09:19:31;7.47;;;5.93;;
9960;SDS011;5021;51.506;11.320;2023-06-24T09:22:01;5.80;;;5.20;;
9960;SDS011;5021;51.506;11.320;2023-06-24T09:24:27;5.80;;;5.30;;
9960;SDS011;5021;51.506;11.320;2023-06-24T09:26:55;8.90;;;5.30;;
9960;SDS011;5021;51.506;11.320;2023-06-24T09:29:25;7.07;;;5.80;;
9960;SDS011;5021;51.506;11.320;2023-06-24T09:31:52;5.47;;;5.00;;
9960;SDS011;5021;51.506;11.320;2023-06-24T09:34:18;5.33;;;4.70;;
9960;SDS011;5021;51.506;11.320;2023-06-24T09:36:44;6.90;;;5.20;;
9960;SDS011;5021;51.506;11.320;2023-06-24T09:39:10;5.40;;;4.83;;
9960;SDS011;5021;51.506;11.320;2023-06-24T09:41:40;6.37;;;4.80;;
9960;SDS011;5021;51.506;11.320;2023-06-24T09:44:12;5.90;;;4.60;;
9960;SDS011;5021;51.506;11.320;2023-06-24T09:46:38;5.70;;;4.90;;
9960;SDS011;5021;51.506;11.320;2023-06-24T09:49:06;5.23;;;4.73;;
9960;SDS011;5021;51.506;11.320;2023-06-24T09:51:33;5.37;;;4.87;;
9960;SDS011;5021;51.506;11.320;2023-06-24T09:54:01;5.63;;;4.90;;
9960;SDS011;5021;51.506;11.320;2023-06-24T09:56:28;5.07;;;4.57;;
9960;SDS011;5021;51.506;11.320;2023-06-24T09:58:54;4.40;;;4.00;;
9960;SDS011;5021;51.506;11.320;2023-06-24T10:01:20;4.73;;;4.33;;
9960;SDS011;5021;51.506;11.320;2023-06-24T10:03:46;5.53;;;4.70;;
9960;SDS011;5021;51.506;11.320;2023-06-24T10:06:12;5.30;;;4.80;;
9960;SDS011;5021;51.506;11.320;2023-06-24T10:08:38;5.00;;;4.50;;
9960;SDS011;5021;51.506;11.320;2023-06-24T10:11:04;5.93;;;4.23;;
9960;SDS011;5021;51.506;11.320;2023-06-24T10:13:30;5.67;;;4.43;;
9960;SDS011;5021;51.506;11.320;2023-06-24T10:15:56;4.67;;;4.20;;
9960;SDS011;5021;51.506;11.320;2023-06-24T10:20:54;4.40;;;4.00;;
9960;SDS011;5021;51.506;11.320;2023-06-24T10:23:20;4.43;;;4.03;;
9960;SDS011;5021;51.506;11.320;2023-06-24T10:25:47;6.30;;;4.30;;
9960;SDS011;5021;51.506;11.320;2023-06-24T10:28:12;5.10;;;4.50;;
9960;SDS011;5021;51.506;11.320;2023-06-24T10:30:38;4.30;;;3.90;;
9960;SDS011;5021;51.506;11.320;2023-06-24T10:33:04;4.30;;;3.90;;
9960;SDS011;5021;51.506;11.320;2023-06-24T10:35:37;4.60;;;4.10;;
9960;SDS011;5021;51.506;11.320;2023-06-24T10:38:09;5.37;;;4.07;;
9960;SDS011;5021;51.506;11.320;2023-06-24T10:40:42;4.67;;;3.90;;
9960;SDS011;5021;51.506;11.320;2023-06-24T10:45:50;4.87;;;4.37;;
9960;SDS011;5021;51.506;11.320;2023-06-24T10:48:19;5.00;;;4.57;;
9960;SDS011;5021;51.506;11.320;2023-06-24T10:50:46;4.10;;;3.70;;
9960;SDS011;5021;51.506;11.320;2023-06-24T10:53:12;4.70;;;3.93;;
9960;SDS011;5021;51.506;11.320;2023-06-24T10:55:38;5.30;;;3.80;;
9960;SDS011;5021;51.506;11.320;2023-06-24T10:58:08;5.13;;;3.70;;
9960;SDS011;5021;51.506;11.320;2023-06-24T11:00:34;5.20;;;4.30;;
9960;SDS011;5021;51.506;11.320;2023-06-24T11:03:13;4.90;;;3.60;;
9960;SDS011;5021;51.506;11.320;2023-06-24T11:05:43;4.07;;;3.50;;
9960;SDS011;5021;51.506;11.320;2023-06-24T11:08:09;4.93;;;4.00;;
9960;SDS011;5021;51.506;11.320;2023-06-24T11:10:42;3.73;;;3.43;;
9960;SDS011;5021;51.506;11.320;2023-06-24T11:13:09;3.57;;;3.27;;
9960;SDS011;5021;51.506;11.320;2023-06-24T11:15:35;4.73;;;3.63;;
9960;SDS011;5021;51.506;11.320;2023-06-24T11:18:02;4.53;;;3.80;;
9960;SDS011;5021;51.506;11.320;2023-06-24T11:20:29;3.90;;;3.60;;
9960;SDS011;5021;51.506;11.320;2023-06-24T11:22:55;4.10;;;3.57;;
9960;SDS011;5021;51.506;11.320;2023-06-24T11:25:21;5.13;;;3.33;;
9960;SDS011;5021;51.506;11.320;2023-06-24T11:27:49;3.83;;;3.40;;
9960;SDS011;5021;51.506;11.320;2023-06-24T11:30:16;5.17;;;4.07;;
9960;SDS011;5021;51.506;11.320;2023-06-24T11:32:43;5.20;;;3.47;;
9960;SDS011;5021;51.506;11.320;2023-06-24T11:35:09;4.60;;;3.90;;
9960;SDS011;5021;51.506;11.320;2023-06-24T11:37:36;4.17;;;3.77;;
9960;SDS011;5021;51.506;11.320;2023-06-24T11:42:31;3.23;;;2.90;;
9960;SDS011;5021;51.506;11.320;2023-06-24T11:45:01;2.97;;;2.73;;
9960;SDS011;5021;51.506;11.320;2023-06-24T11:47:30;2.90;;;2.60;;
9960;SDS011;5021;51.506;11.320;2023-06-24T11:49:57;3.37;;;3.00;;
9960;SDS011;5021;51.506;11.320;2023-06-24T11:52:37;4.07;;;2.70;;
9960;SDS011;5021;51.506;11.320;2023-06-24T11:55:03;3.73;;;3.00;;
9960;SDS011;5021;51.506;11.320;2023-06-24T12:00:14;4.87;;;3.00;;
9960;SDS011;5021;51.506;11.320;2023-06-24T12:02:40;4.60;;;2.80;;
9960;SDS011;5021;51.506;11.320;2023-06-24T12:05:06;5.90;;;3.33;;
9960;SDS011;5021;51.506;11.320;2023-06-24T12:07:32;3.10;;;2.90;;
9960;SDS011;5021;51.506;11.320;2023-06-24T12:09:59;4.27;;;2.77;;
9960;SDS011;5021;51.506;11.320;2023-06-24T12:12:24;3.33;;;2.80;;
9960;SDS011;5021;51.506;11.320;2023-06-24T12:14:50;3.60;;;2.70;;
9960;SDS011;5021;51.506;11.320;2023-06-24T12:17:16;3.63;;;3.07;;
9960;SDS011;5021;51.506;11.320;2023-06-24T12:19:42;3.07;;;2.73;;
9960;SDS011;5021;51.506;11.320;2023-06-24T12:22:08;3.37;;;3.00;;
9960;SDS011;5021;51.506;11.320;2023-06-24T12:24:34;3.07;;;2.77;;
9960;SDS011;5021;51.506;11.320;2023-06-24T12:27:00;4.43;;;2.90;;
9960;SDS011;5021;51.506;11.320;2023-06-24T12:29:26;3.07;;;2.77;;
9960;SDS011;5021;51.506;11.320;2023-06-24T12:31:52;3.73;;;3.03;;
9960;SDS011;5021;51.506;11.320;2023-06-24T12:34:18;4.63;;;2.87;;
9960;SDS011;5021;51.506;11.320;2023-06-24T12:36:45;3.00;;;2.70;;
9960;SDS011;5021;51.506;11.320;2023-06-24T12:39:11;3.43;;;2.93;;
9960;SDS011;5021;51.506;11.320;2023-06-24T12:41:37;3.40;;;3.10;;
9960;SDS011;5021;51.506;11.320;2023-06-24T12:44:03;3.53;;;3.20;;
9960;SDS011;5021;51.506;11.320;2023-06-24T12:46:29;2.90;;;2.60;;
9960;SDS011;5021;51.506;11.320;2023-06-24T12:48:55;3.93;;;2.60;;
9960;SDS011;5021;51.506;11.320;2023-06-24T12:51:21;4.53;;;3.07;;
9960;SDS011;5021;51.506;11.320;2023-06-24T12:53:47;3.60;;;3.13;;
9960;SDS011;5021;51.506;11.320;2023-06-24T12:56:14;4.10;;;3.13;;
9960;SDS011;5021;51.506;11.320;2023-06-24T12:58:40;3.60;;;2.90;;
9960;SDS011;5021;51.506;11.320;2023-06-24T13:01:05;3.20;;;2.90;;
9960;SDS011;5021;51.506;11.320;2023-06-24T13:03:31;3.43;;;2.80;;
9960;SDS011;5021;51.506;11.320;2023-06-24T13:05:57;3.53;;;2.90;;
9960;SDS011;5021;51.506;11.320;2023-06-24T13:08:23;3.13;;;2.80;;
9960;SDS011;5021;51.506;11.320;2023-06-24T13:10:49;3.97;;;3.00;;
9960;SDS011;5021;51.506;11.320;2023-06-24T13:13:15;3.47;;;3.03;;
9960;SDS011;5021;51.506;11.320;2023-06-24T13:15:41;3.23;;;2.93;;
9960;SDS011;5021;51.506;11.320;2023-06-24T13:18:07;4.13;;;3.17;;
9960;SDS011;5021;51.506;11.320;2023-06-24T13:20:33;4.30;;;2.80;;
9960;SDS011;5021;51.506;11.320;2023-06-24T13:22:59;3.33;;;3.03;;
9960;SDS011;5021;51.506;11.320;2023-06-24T13:25:25;4.30;;;3.17;;
9960;SDS011;5021;51.506;11.320;2023-06-24T13:27:51;3.27;;;2.97;;
9960;SDS011;5021;51.506;11.320;2023-06-24T13:30:17;6.63;;;3.10;;
9960;SDS011;5021;51.506;11.320;2023-06-24T13:32:43;4.07;;;3.20;;
9960;SDS011;5021;51.506;11.320;2023-06-24T13:35:09;3.47;;;3.17;;
9960;SDS011;5021;51.506;11.320;2023-06-24T13:37:36;3.77;;;3.13;;
9960;SDS011;5021;51.506;11.320;2023-06-24T13:40:03;3.10;;;2.80;;
9960;SDS011;5021;51.506;11.320;2023-06-24T13:42:29;3.53;;;2.87;;
9960;SDS011;5021;51.506;11.320;2023-06-24T13:44:56;3.20;;;2.90;;
9960;SDS011;5021;51.506;11.320;2023-06-24T13:47:22;3.47;;;3.17;;
9960;SDS011;5021;51.506;11.320;2023-06-24T13:49:48;4.73;;;3.17;;
9960;SDS011;5021;51.506;11.320;2023-06-24T13:52:14;3.33;;;3.00;;
9960;SDS011;5021;51.506;11.320;2023-06-24T13:54:39;3.30;;;3.00;;
9960;SDS011;5021;51.506;11.320;2023-06-24T13:57:05;3.30;;;3.00;;
9960;SDS011;5021;51.506;11.320;2023-06-24T13:59:31;3.80;;;3.17;;
9960;SDS011;5021;51.506;11.320;2023-06-24T14:01:57;3.83;;;3.47;;
9960;SDS011;5021;51.506;11.320;2023-06-24T14:04:23;3.50;;;3.20;;
9960;SDS011;5021;51.506;11.320;2023-06-24T14:06:49;4.27;;;3.20;;
9960;SDS011;5021;51.506;11.320;2023-06-24T14:09:15;3.00;;;2.70;;
9960;SDS011;5021;51.506;11.320;2023-06-24T14:11:41;3.40;;;3.10;;
9960;SDS011;5021;51.506;11.320;2023-06-24T14:14:07;3.10;;;2.90;;
9960;SDS011;5021;51.506;11.320;2023-06-24T14:16:33;3.67;;;3.37;;
9960;SDS011;5021;51.506;11.320;2023-06-24T14:18:59;3.50;;;3.20;;
9960;SDS011;5021;51.506;11.320;2023-06-24T14:21:25;3.97;;;2.90;;
9960;SDS011;5021;51.506;11.320;2023-06-24T14:23:51;3.63;;;3.00;;
9960;SDS011;5021;51.506;11.320;2023-06-24T14:26:16;3.57;;;3.00;;
9960;SDS011;5021;51.506;11.320;2023-06-24T14:28:42;3.50;;;3.20;;
9960;SDS011;5021;51.506;11.320;2023-06-24T14:31:08;3.35;;;3.05;;
9960;SDS011;5021;51.506;11.320;2023-06-24T14:33:34;3.43;;;3.13;;
9960;SDS011;5021;51.506;11.320;2023-06-24T14:36:00;3.17;;;2.87;;
9960;SDS011;5021;51.506;11.320;2023-06-24T14:38:26;4.80;;;3.20;;
9960;SDS011;5021;51.506;11.320;2023-06-24T14:40:52;3.73;;;3.10;;
9960;SDS011;5021;51.506;11.320;2023-06-24T14:43:20;3.50;;;3.20;;
9960;SDS011;5021;51.506;11.320;2023-06-24T14:45:46;3.50;;;3.20;;
9960;SDS011;5021;51.506;11.320;2023-06-24T14:48:12;3.08;;;2.80;;
9960;SDS011;5021;51.506;11.320;2023-06-24T14:50:38;3.90;;;2.90;;
9960;SDS011;5021;51.506;11.320;2023-06-24T14:53:04;3.63;;;3.10;;
9960;SDS011;5021;51.506;11.320;2023-06-24T14:55:30;3.20;;;2.83;;
9960;SDS011;5021;51.506;11.320;2023-06-24T14:57:56;4.00;;;3.10;;
9960;SDS011;5021;51.506;11.320;2023-06-24T15:00:22;4.40;;;3.10;;
9960;SDS011;5021;51.506;11.320;2023-06-24T15:02:48;5.07;;;3.10;;
9960;SDS011;5021;51.506;11.320;2023-06-24T15:05:14;3.47;;;3.07;;
9960;SDS011;5021;51.506;11.320;2023-06-24T15:07:40;4.60;;;3.10;;
9960;SDS011;5021;51.506;11.320;2023-06-24T15:10:06;4.10;;;3.10;;
9960;SDS011;5021;51.506;11.320;2023-06-24T15:12:32;5.07;;;3.03;;